Terminal Aerodrome Forecast
Issued by NWS

Home | Current Version | Previous Version | Graphics & Text | Print | Product List | Glossary On
Versions: 1 2 3 4 5 6 7 8 9 10 11 12 13 14 15 16 17 18 19 20 21 22 23 24 25 26 27 28 29 30 31 32 33 34
000
FTUS43 KLOT 252000 AAB
TAFDPA
TAF AMD
KDPA 252046Z 2521/2618 03017G26KT P6SM OVC020
     FM252200 03017G25KT P6SM OVC030
     FM260000 02012KT P6SM BKN050
     FM260700 VRB03KT P6SM SKC
     FM261400 21005KT P6SM FEW025 BKN080=

USA.gov is the U.S. government's official web portal to all federal, state and local government web resources and services.